createdAt,value
2019-01-14T00:00:08.734Z,94.50
2019-01-14T00:02:37.567Z,94.40
2019-01-14T00:05:06.661Z,94.70
2019-01-14T00:07:35.155Z,94.80
2019-01-14T00:10:04.789Z,94.30
2019-01-14T00:12:33.401Z,94.00
2019-01-14T00:15:02.160Z,94.00
2019-01-14T00:17:31.460Z,94.00
2019-01-14T00:19:59.887Z,94.10
2019-01-14T00:22:28.727Z,93.60
2019-01-14T00:24:57.175Z,93.80
2019-01-14T00:27:25.611Z,93.60
2019-01-14T00:29:54.067Z,93.20
2019-01-14T00:32:22.543Z,93.30
2019-01-14T00:34:50.990Z,93.20
2019-01-14T00:37:19.454Z,92.70
2019-01-14T00:39:48.275Z,93.10
2019-01-14T00:42:16.833Z,93.10
2019-01-14T00:44:45.286Z,92.80
2019-01-14T00:47:13.722Z,92.80
2019-01-14T00:49:42.166Z,92.90
2019-01-14T00:52:10.606Z,92.50
2019-01-14T00:54:39.057Z,92.50
2019-01-14T00:57:07.494Z,92.20
2019-01-14T00:59:35.947Z,92.30
2019-01-14T01:02:04.835Z,92.20
2019-01-14T01:04:33.285Z,92.30
2019-01-14T01:07:01.715Z,91.70
2019-01-14T01:09:30.163Z,92.00
2019-01-14T01:11:59.235Z,92.10
2019-01-14T01:14:27.759Z,92.30
2019-01-14T01:16:56.374Z,92.40
2019-01-14T01:19:25.284Z,92.60
2019-01-14T01:21:53.719Z,92.50
2019-01-14T01:24:23.227Z,92.70
2019-01-14T01:26:51.673Z,92.90
2019-01-14T01:29:20.144Z,93.10
2019-01-14T01:31:48.610Z,93.00
2019-01-14T01:34:17.395Z,93.00
2019-01-14T01:36:45.827Z,93.10
2019-01-14T01:39:14.276Z,93.30
2019-01-14T01:41:43.037Z,93.40
2019-01-14T01:44:11.502Z,93.60
2019-01-14T01:46:39.935Z,93.90
2019-01-14T01:49:08.395Z,93.70
2019-01-14T01:51:36.839Z,93.90
2019-01-14T01:54:05.375Z,93.00
2019-01-14T01:56:33.819Z,93.30
2019-01-14T01:59:02.281Z,92.90
2019-01-14T02:01:30.717Z,92.70
2019-01-14T02:03:59.166Z,92.70
2019-01-14T02:06:27.939Z,92.10
2019-01-14T02:08:56.747Z,92.40
2019-01-14T02:11:25.202Z,92.60
2019-01-14T02:13:53.726Z,92.20
2019-01-14T02:16:22.166Z,91.80
2019-01-14T02:18:50.645Z,91.10
2019-01-14T02:21:19.425Z,91.20
2019-01-14T02:23:47.902Z,91.10
2019-01-14T02:26:16.716Z,90.40
2019-01-14T02:28:45.500Z,90.20
2019-01-14T02:31:13.951Z,89.70
2019-01-14T02:33:42.421Z,89.60
2019-01-14T02:36:10.978Z,89.40
2019-01-14T02:38:39.426Z,89.20
2019-01-14T02:41:07.896Z,88.40
2019-01-14T02:43:36.348Z,88.10
2019-01-14T02:46:05.161Z,87.90
2019-01-14T02:48:33.630Z,88.00
2019-01-14T02:51:02.084Z,87.80
2019-01-14T02:53:30.887Z,87.70
2019-01-14T02:55:59.325Z,87.80
2019-01-14T02:58:28.261Z,88.00
2019-01-14T03:00:56.989Z,88.10
2019-01-14T03:03:25.427Z,87.70
2019-01-14T03:05:53.891Z,87.70
2019-01-14T03:08:22.335Z,87.90
2019-01-14T03:10:50.793Z,87.90
2019-01-14T03:13:19.231Z,88.10
2019-01-14T03:15:47.710Z,87.60
2019-01-14T03:18:16.163Z,87.60
2019-01-14T03:20:44.622Z,87.60
2019-01-14T03:23:13.357Z,87.90
2019-01-14T03:25:42.158Z,88.00
2019-01-14T03:28:10.947Z,88.10
2019-01-14T03:30:39.468Z,87.90
2019-01-14T03:33:08.218Z,88.20
2019-01-14T03:35:36.658Z,88.50
2019-01-14T03:38:05.115Z,88.70
2019-01-14T03:40:33.939Z,88.60
2019-01-14T03:43:02.374Z,88.70
2019-01-14T03:45:30.841Z,89.10
2019-01-14T03:47:59.307Z,89.30
2019-01-14T03:50:27.788Z,89.20
2019-01-14T03:52:56.245Z,89.10
2019-01-14T03:55:25.029Z,89.30
2019-01-14T03:57:53.519Z,89.30
2019-01-14T04:00:22.312Z,89.50
2019-01-14T04:02:50.816Z,89.70
2019-01-14T04:05:19.548Z,89.40
2019-01-14T04:07:47.980Z,89.40
2019-01-14T04:10:17.782Z,89.60
2019-01-14T04:12:46.844Z,89.60
2019-01-14T04:15:17.350Z,89.70
2019-01-14T04:17:45.985Z,89.70
2019-01-14T04:20:18.712Z,89.50
2019-01-14T04:22:48.265Z,89.60
2019-01-14T04:25:16.721Z,89.80
2019-01-14T04:27:45.166Z,89.80
2019-01-14T04:30:16.868Z,89.80
2019-01-14T04:32:45.621Z,89.80
2019-01-14T04:35:14.838Z,90.00
2019-01-14T04:37:43.272Z,89.60
2019-01-14T04:40:14.872Z,89.20
2019-01-14T04:42:43.564Z,88.90
2019-01-14T04:45:14.165Z,89.30
2019-01-14T04:47:42.967Z,88.80
2019-01-14T04:50:14.647Z,89.20
2019-01-14T04:52:43.112Z,88.90
2019-01-14T04:55:11.669Z,88.80
2019-01-14T04:57:40.579Z,88.90
2019-01-14T05:00:15.200Z,89.10
2019-01-14T05:02:43.662Z,88.90
2019-01-14T05:05:12.564Z,88.60
2019-01-14T05:07:41.354Z,88.60
2019-01-14T05:10:13.424Z,88.70
2019-01-14T05:12:42.232Z,88.50
2019-01-14T05:15:12.530Z,89.10
2019-01-14T05:17:41.238Z,88.80
2019-01-14T05:20:15.649Z,89.20
2019-01-14T05:22:44.201Z,89.50
2019-01-14T05:25:13.504Z,89.60
2019-01-14T05:27:41.980Z,89.90
2019-01-14T05:30:13.383Z,89.80
2019-01-14T05:32:41.911Z,89.60
2019-01-14T05:35:12.173Z,89.60
2019-01-14T05:37:40.920Z,89.40
2019-01-14T05:40:18.159Z,89.70
2019-01-14T05:42:46.728Z,89.70
2019-01-14T05:45:15.675Z,89.70
2019-01-14T05:47:44.171Z,89.20
2019-01-14T05:50:16.395Z,88.90
2019-01-14T05:52:45.213Z,89.20
2019-01-14T05:55:15.280Z,88.80
2019-01-14T05:57:43.874Z,88.70
2019-01-14T06:00:21.592Z,88.60
2019-01-14T06:02:50.054Z,88.80
2019-01-14T06:05:18.900Z,89.20
2019-01-14T06:07:48.072Z,89.50
2019-01-14T06:10:16.600Z,89.60
2019-01-14T06:12:45.069Z,89.60
2019-01-14T06:15:15.962Z,89.50
2019-01-14T06:17:44.417Z,89.40
2019-01-14T06:20:19.845Z,89.70
2019-01-14T06:22:48.454Z,89.50
2019-01-14T06:25:17.822Z,89.40
2019-01-14T06:27:46.349Z,89.50
2019-01-14T06:30:18.035Z,89.50
2019-01-14T06:32:46.903Z,89.80
2019-01-14T06:35:15.407Z,89.80
2019-01-14T06:37:44.668Z,89.60
2019-01-14T06:40:17.568Z,89.60
2019-01-14T06:42:46.090Z,89.40
2019-01-14T06:45:15.373Z,89.50
2019-01-14T06:47:44.549Z,89.40
2019-01-14T06:50:17.918Z,89.60
2019-01-14T06:52:46.724Z,89.50
2019-01-14T06:55:16.287Z,89.80
2019-01-14T06:57:45.425Z,89.80
2019-01-14T07:00:25.418Z,89.80
2019-01-14T07:02:54.677Z,89.80
2019-01-14T07:05:24.190Z,89.80
2019-01-14T07:07:59.201Z,89.70
2019-01-14T07:10:26.302Z,89.70
2019-01-14T07:12:54.819Z,89.60
2019-01-14T07:15:23.291Z,89.80
2019-01-14T07:17:51.719Z,90.10
2019-01-14T07:20:20.436Z,90.10
2019-01-14T07:22:50.834Z,90.00
2019-01-14T07:25:19.737Z,90.00
2019-01-14T07:27:48.711Z,90.10
2019-01-14T07:30:23.892Z,90.10
2019-01-14T07:32:52.311Z,90.10
2019-01-14T07:35:26.033Z,90.10
2019-01-14T07:37:54.524Z,90.10
2019-01-14T07:40:23.373Z,90.30
2019-01-14T07:42:52.765Z,90.40
2019-01-14T07:45:21.187Z,90.40
2019-01-14T07:47:51.168Z,90.20
2019-01-14T07:50:19.880Z,90.20
2019-01-14T07:52:48.811Z,90.20
2019-01-14T07:55:17.356Z,90.20
2019-01-14T07:57:45.795Z,90.10
2019-01-14T08:00:20.109Z,90.40
2019-01-14T08:02:49.026Z,90.50
2019-01-14T08:05:17.542Z,90.50
2019-01-14T08:07:46.261Z,90.70
2019-01-14T08:10:15.381Z,90.90
2019-01-14T08:12:43.826Z,90.70
2019-01-14T08:15:15.234Z,90.90
2019-01-14T08:17:43.960Z,91.10
2019-01-14T08:20:12.970Z,91.00
2019-01-14T08:22:41.434Z,91.10
2019-01-14T08:25:21.266Z,91.00
2019-01-14T08:27:49.728Z,91.00
2019-01-14T08:30:20.822Z,90.90
2019-01-14T08:32:49.283Z,90.90
2019-01-14T08:35:17.847Z,91.10
2019-01-14T08:37:46.359Z,91.20
2019-01-14T08:40:17.222Z,91.30
2019-01-14T08:42:45.828Z,91.30
2019-01-14T08:45:15.153Z,91.30
2019-01-14T08:47:43.600Z,91.40
2019-01-14T08:50:17.505Z,91.00
2019-01-14T08:52:46.339Z,90.90
2019-01-14T08:55:15.551Z,90.80
2019-01-14T08:57:44.063Z,90.70
2019-01-14T09:00:15.546Z,90.70
2019-01-14T09:02:44.056Z,90.40
2019-01-14T09:05:13.404Z,90.60
2019-01-14T09:07:41.834Z,90.60
2019-01-14T09:10:13.327Z,90.50
2019-01-14T09:12:42.178Z,90.70
2019-01-14T09:15:16.862Z,90.30
2019-01-14T09:17:45.860Z,90.30
2019-01-14T09:20:19.478Z,90.10
2019-01-14T09:22:48.079Z,90.10
2019-01-14T09:25:16.811Z,89.90
2019-01-14T09:27:45.410Z,90.10
2019-01-14T09:30:32.876Z,89.60
2019-01-14T09:33:38.598Z,89.70
2019-01-14T09:36:02.472Z,89.80
2019-01-14T09:38:35.745Z,89.90
2019-01-14T09:41:01.090Z,90.20
2019-01-14T09:43:29.541Z,89.90
2019-01-14T09:45:59.911Z,89.90
2019-01-14T09:48:28.654Z,89.70
2019-01-14T09:50:57.101Z,89.90
2019-01-14T09:53:25.968Z,90.10
2019-01-14T09:55:54.428Z,89.70
2019-01-14T09:58:22.875Z,89.90
2019-01-14T10:00:51.300Z,89.40
2019-01-14T10:03:19.781Z,89.20
2019-01-14T10:05:48.251Z,89.30
2019-01-14T10:08:16.715Z,89.40
2019-01-14T10:10:45.197Z,89.30
2019-01-14T10:13:13.663Z,89.50
2019-01-14T10:15:42.442Z,89.40
2019-01-14T10:18:10.913Z,89.30
2019-01-14T10:20:39.831Z,89.60
2019-01-14T10:23:08.262Z,89.40
2019-01-14T10:25:36.799Z,89.60
2019-01-14T10:28:05.580Z,89.80
2019-01-14T10:30:34.183Z,90.10
2019-01-14T10:33:05.462Z,90.00
2019-01-14T10:35:33.923Z,90.10
2019-01-14T10:38:05.422Z,90.10
2019-01-14T10:40:34.212Z,90.10
2019-01-14T10:43:03.158Z,90.30
2019-01-14T10:45:33.083Z,90.40
2019-01-14T10:48:01.859Z,90.00
2019-01-14T10:50:30.296Z,90.10
2019-01-14T10:52:58.741Z,90.10
2019-01-14T10:55:27.234Z,90.00
2019-01-14T10:57:55.668Z,90.10
2019-01-14T11:00:25.931Z,89.50
2019-01-14T11:02:54.833Z,88.90
2019-01-14T11:05:27.001Z,88.90
2019-01-14T11:07:55.605Z,88.50
2019-01-14T11:10:24.148Z,88.30
2019-01-14T11:12:52.684Z,87.90
2019-01-14T11:15:22.481Z,88.20
2019-01-14T11:17:51.201Z,87.90
2019-01-14T11:20:28.749Z,87.30
2019-01-14T11:22:58.123Z,87.10
2019-01-14T11:25:27.602Z,87.10
2019-01-14T11:27:56.291Z,86.70
2019-01-14T11:30:26.982Z,86.60
2019-01-14T11:32:55.742Z,86.50
2019-01-14T11:35:24.164Z,85.50
2019-01-14T11:37:52.606Z,85.50
2019-01-14T11:40:23.954Z,85.20
2019-01-14T11:42:52.401Z,85.30
2019-01-14T11:45:21.315Z,85.30
2019-01-14T11:47:49.840Z,84.90
2019-01-14T11:50:19.010Z,85.20
2019-01-14T11:52:48.235Z,85.00
2019-01-14T11:55:16.689Z,85.50
2019-01-14T11:57:45.126Z,85.00
2019-01-14T12:00:22.133Z,85.20
2019-01-14T12:02:50.941Z,85.40
2019-01-14T12:05:19.687Z,85.40
2019-01-14T12:07:49.310Z,85.50
2019-01-14T12:10:17.882Z,85.10
2019-01-14T12:12:46.348Z,85.50
2019-01-14T12:15:18.017Z,85.80
2019-01-14T12:17:46.485Z,86.20
2019-01-14T12:20:15.883Z,85.80
2019-01-14T12:22:45.439Z,85.40
2019-01-14T12:25:15.921Z,85.00
2019-01-14T12:27:44.702Z,84.10
2019-01-14T12:30:28.547Z,84.10
2019-01-14T12:32:57.401Z,83.10
2019-01-14T12:35:26.114Z,83.50
2019-01-14T12:37:54.930Z,83.90
2019-01-14T12:40:25.114Z,84.20
2019-01-14T12:42:53.576Z,84.90
2019-01-14T12:45:22.259Z,85.30
2019-01-14T12:47:50.717Z,85.90
2019-01-14T12:50:23.971Z,87.00
2019-01-14T12:52:52.541Z,87.60
2019-01-14T12:55:21.072Z,88.00
2019-01-14T12:57:49.840Z,88.90
2019-01-14T13:00:24.225Z,88.50
2019-01-14T13:02:52.932Z,89.10
2019-01-14T13:05:22.819Z,85.00
2019-01-14T13:07:52.126Z,87.80
2019-01-14T13:10:20.830Z,87.40
2019-01-14T13:12:50.023Z,88.50
2019-01-14T13:15:21.101Z,89.60
2019-01-14T13:17:49.753Z,91.00
2019-01-14T13:20:20.535Z,92.20
2019-01-14T13:22:49.366Z,93.30
2019-01-14T13:25:18.342Z,93.80
2019-01-14T13:27:47.627Z,94.20
2019-01-14T13:30:22.070Z,94.30
2019-01-14T13:32:50.541Z,94.80
2019-01-14T13:35:19.134Z,95.40
2019-01-14T13:37:47.739Z,95.60
2019-01-14T13:40:16.751Z,96.10
2019-01-14T13:42:45.254Z,96.00
2019-01-14T13:45:19.647Z,96.20
2019-01-14T13:47:48.701Z,96.40
2019-01-14T13:50:20.058Z,96.40
2019-01-14T13:52:48.506Z,96.20
2019-01-14T13:55:17.860Z,96.20
2019-01-14T13:57:46.566Z,95.90
2019-01-14T14:00:23.240Z,95.70
2019-01-14T14:02:52.220Z,95.70
2019-01-14T14:05:20.701Z,95.20
2019-01-14T14:07:49.194Z,95.30
2019-01-14T14:10:21.066Z,95.20
2019-01-14T14:12:49.879Z,94.40
2019-01-14T14:15:19.680Z,94.40
2019-01-14T14:17:48.458Z,93.90
2019-01-14T14:20:18.578Z,93.80
2019-01-14T14:22:47.485Z,94.10
2019-01-14T14:25:15.992Z,93.60
2019-01-14T14:27:44.457Z,93.40
2019-01-14T14:30:27.657Z,93.20
2019-01-14T14:32:56.095Z,93.40
2019-01-14T14:35:24.556Z,93.60
2019-01-14T14:37:52.995Z,93.80
2019-01-14T14:40:21.897Z,93.80
2019-01-14T14:42:50.361Z,93.70
2019-01-14T14:45:19.176Z,93.30
2019-01-14T14:47:47.650Z,93.20
2019-01-14T14:50:20.603Z,93.00
2019-01-14T14:52:49.404Z,93.20
2019-01-14T14:55:18.209Z,93.30
2019-01-14T14:57:46.735Z,93.40
2019-01-14T15:00:24.517Z,93.40
2019-01-14T15:02:53.459Z,93.50
2019-01-14T15:05:30.811Z,93.30
2019-01-14T15:08:51.812Z,93.20
2019-01-14T15:11:20.295Z,93.10
2019-01-14T15:13:50.816Z,93.20
2019-01-14T15:16:19.546Z,93.50
2019-01-14T15:18:47.985Z,93.60
2019-01-14T15:21:16.840Z,93.90
2019-01-14T15:24:04.481Z,94.00
2019-01-14T15:26:35.613Z,94.10
2019-01-14T15:29:05.627Z,94.20
2019-01-14T15:31:34.327Z,94.40
2019-01-14T15:34:09.693Z,94.50
2019-01-14T15:36:38.509Z,94.60
2019-01-14T15:39:09.614Z,94.70
2019-01-14T15:41:38.089Z,94.80
2019-01-14T15:44:06.967Z,94.90
2019-01-14T15:46:35.469Z,95.00
2019-01-14T15:49:03.885Z,95.00
2019-01-14T15:51:32.323Z,95.00
2019-01-14T15:54:01.003Z,95.00
2019-01-14T15:56:29.466Z,95.40
2019-01-14T15:58:58.212Z,95.40
2019-01-14T16:01:26.666Z,95.40
2019-01-14T16:03:55.500Z,95.50
2019-01-14T16:06:24.275Z,95.20
2019-01-14T16:08:53.763Z,95.10
2019-01-14T16:11:22.242Z,95.00
2019-01-14T16:13:51.147Z,94.90
2019-01-14T16:16:19.614Z,95.00
2019-01-14T16:18:49.331Z,95.40
2019-01-14T16:21:17.789Z,96.00
2019-01-14T16:23:46.231Z,95.50
2019-01-14T16:26:20.753Z,95.20
2019-01-14T16:28:49.194Z,94.80
2019-01-14T16:31:17.677Z,94.30
2019-01-14T16:33:46.206Z,94.50
2019-01-14T16:36:14.655Z,94.50
2019-01-14T16:38:43.096Z,94.60
2019-01-14T16:41:11.654Z,94.70
2019-01-14T16:43:40.106Z,94.30
2019-01-14T16:46:08.876Z,93.90
2019-01-14T16:48:37.327Z,93.90
2019-01-14T16:51:05.782Z,93.90
2019-01-14T16:53:34.252Z,94.00
2019-01-14T16:56:03.084Z,94.00
2019-01-14T16:58:31.879Z,93.70
2019-01-14T17:01:00.336Z,93.80
2019-01-14T17:03:28.788Z,93.70
2019-01-14T17:05:57.219Z,93.50
2019-01-14T17:08:25.995Z,93.60
2019-01-14T17:10:54.445Z,93.30
2019-01-14T17:13:22.902Z,93.40
2019-01-14T17:15:51.346Z,93.40
2019-01-14T17:18:19.813Z,93.40
2019-01-14T17:20:48.247Z,93.40
2019-01-14T17:23:16.698Z,93.60
2019-01-14T17:25:45.166Z,93.40
2019-01-14T17:28:13.931Z,93.60
2019-01-14T17:30:42.507Z,93.60
2019-01-14T17:33:10.947Z,93.60
2019-01-14T17:35:39.403Z,93.60
2019-01-14T17:38:07.881Z,93.60
2019-01-14T17:40:36.363Z,93.60
2019-01-14T17:43:04.913Z,93.60
2019-01-14T17:45:33.902Z,94.20
2019-01-14T17:48:02.523Z,94.30
2019-01-14T17:50:30.966Z,94.30
2019-01-14T17:52:59.855Z,94.50
2019-01-14T17:55:28.306Z,94.50
2019-01-14T17:57:57.131Z,94.30
2019-01-14T18:00:25.819Z,94.00
2019-01-14T18:02:54.279Z,93.70
2019-01-14T18:05:22.869Z,93.60
2019-01-14T18:07:51.374Z,93.40
2019-01-14T18:10:20.949Z,93.40
2019-01-14T18:12:49.748Z,93.30
2019-01-14T18:15:18.223Z,93.30
2019-01-14T18:17:46.997Z,93.30
2019-01-14T18:20:17.887Z,93.30
2019-01-14T18:22:46.372Z,93.20
2019-01-14T18:25:16.845Z,93.40
2019-01-14T18:27:45.928Z,93.70
2019-01-14T18:30:19.850Z,93.70
2019-01-14T18:32:48.624Z,93.90
2019-01-14T18:35:17.356Z,93.90
2019-01-14T18:37:52.099Z,93.90
2019-01-14T18:40:20.943Z,94.00
2019-01-14T18:42:49.402Z,94.00
2019-01-14T18:45:19.140Z,94.20
2019-01-14T18:47:47.626Z,94.20
2019-01-14T18:50:18.450Z,94.20
2019-01-14T18:52:47.219Z,94.10
2019-01-14T18:55:16.031Z,93.90
2019-01-14T18:57:46.031Z,93.90
2019-01-14T19:00:17.004Z,94.00
2019-01-14T19:02:45.462Z,93.90
2019-01-14T19:05:13.938Z,93.90
2019-01-14T19:07:42.401Z,94.10
2019-01-14T19:10:12.596Z,94.20
2019-01-14T19:12:41.402Z,94.20
2019-01-14T19:15:18.075Z,94.40
2019-01-14T19:17:47.082Z,94.70
2019-01-14T19:20:18.455Z,94.80
2019-01-14T19:22:46.932Z,94.90
2019-01-14T19:25:15.447Z,95.00
2019-01-14T19:27:44.690Z,95.50
2019-01-14T19:30:16.738Z,95.40
2019-01-14T19:32:45.179Z,95.40
2019-01-14T19:35:14.095Z,95.40
2019-01-14T19:37:42.539Z,95.30
2019-01-14T19:40:13.938Z,95.40
2019-01-14T19:42:43.267Z,95.40
2019-01-14T19:45:14.367Z,95.50
2019-01-14T19:47:42.961Z,95.50
2019-01-14T19:50:15.035Z,95.40
2019-01-14T19:52:43.915Z,95.60
2019-01-14T19:55:12.938Z,95.90
2019-01-14T19:57:41.718Z,95.90
2019-01-14T20:00:16.131Z,96.10
2019-01-14T20:02:44.903Z,96.20
2019-01-14T20:05:13.453Z,96.30
2019-01-14T20:07:41.975Z,96.30
2019-01-14T20:10:13.775Z,96.50
2019-01-14T20:12:42.465Z,96.70
2019-01-14T20:15:16.424Z,96.50
2019-01-14T20:17:45.188Z,96.40
2019-01-14T20:20:14.503Z,96.50
2019-01-14T20:22:42.942Z,96.50
2019-01-14T20:25:12.643Z,96.40
2019-01-14T20:27:41.166Z,96.10
2019-01-14T20:30:19.184Z,95.90
2019-01-14T20:32:49.390Z,95.40
2019-01-14T20:35:18.174Z,95.20
2019-01-14T20:37:46.966Z,94.90
2019-01-14T20:40:17.292Z,94.70
2019-01-14T20:42:45.714Z,94.50
2019-01-14T20:45:16.597Z,94.50
2019-01-14T20:47:45.395Z,94.30
2019-01-14T20:50:16.503Z,94.30
2019-01-14T20:52:44.951Z,94.20
2019-01-14T20:55:13.862Z,94.10
2019-01-14T20:57:42.685Z,94.00
2019-01-14T21:00:14.374Z,93.80
2019-01-14T21:02:47.203Z,93.70
2019-01-14T21:05:16.663Z,93.60
2019-01-14T21:07:45.407Z,93.60
2019-01-14T21:10:15.602Z,93.60
2019-01-14T21:12:44.146Z,93.50
2019-01-14T21:15:13.206Z,92.90
2019-01-14T21:17:41.671Z,92.00
2019-01-14T21:20:23.467Z,92.30
2019-01-14T21:22:52.764Z,92.20
2019-01-14T21:25:21.274Z,92.20
2019-01-14T21:27:50.054Z,92.20
2019-01-14T21:30:21.332Z,92.10
2019-01-14T21:32:50.155Z,91.90
2019-01-14T21:35:19.059Z,91.90
2019-01-14T21:37:48.735Z,91.90
2019-01-14T21:40:17.200Z,92.00
2019-01-14T21:42:46.043Z,92.40
2019-01-14T21:45:15.819Z,92.70
2019-01-14T21:47:44.345Z,92.70
2019-01-14T21:50:15.091Z,93.10
2019-01-14T21:52:44.965Z,93.20
2019-01-14T21:55:18.885Z,93.20
2019-01-14T21:57:47.507Z,93.50
2019-01-14T22:00:18.986Z,93.70
2019-01-14T22:02:47.459Z,93.90
2019-01-14T22:05:16.576Z,94.30
2019-01-14T22:07:45.778Z,94.60
2019-01-14T22:10:26.252Z,94.60
2019-01-14T22:12:55.056Z,94.80
2019-01-14T22:15:24.041Z,94.90
2019-01-14T22:17:52.829Z,95.00
2019-01-14T22:20:23.827Z,95.30
2019-01-14T22:22:52.281Z,95.10
2019-01-14T22:25:20.802Z,94.80
2019-01-14T22:27:49.303Z,94.60
2019-01-14T22:30:29.345Z,94.30
2019-01-14T22:32:57.799Z,93.90
2019-01-14T22:35:27.011Z,93.60
2019-01-14T22:37:55.479Z,93.40
2019-01-14T22:40:24.403Z,92.90
2019-01-14T22:42:52.875Z,92.40
2019-01-14T22:45:21.734Z,92.30
2019-01-14T22:47:50.210Z,92.30
2019-01-14T22:50:19.532Z,92.30
2019-01-14T22:52:47.977Z,92.40
2019-01-14T22:55:16.422Z,92.70
2019-01-14T22:57:45.312Z,92.80
2019-01-14T23:00:28.191Z,92.80
2019-01-14T23:02:56.638Z,93.00
2019-01-14T23:05:25.074Z,92.70
2019-01-14T23:07:53.539Z,92.80
2019-01-14T23:10:22.433Z,92.90
2019-01-14T23:12:50.884Z,92.70
2019-01-14T23:15:19.331Z,92.90
2019-01-14T23:17:47.807Z,92.90
2019-01-14T23:20:16.249Z,92.90
2019-01-14T23:22:45.018Z,93.10
2019-01-14T23:25:13.827Z,93.00
2019-01-14T23:27:42.628Z,92.90
2019-01-14T23:30:11.942Z,93.00
2019-01-14T23:32:40.415Z,92.60
2019-01-14T23:35:10.088Z,92.30
2019-01-14T23:37:38.563Z,92.10
2019-01-14T23:40:08.666Z,91.90
2019-01-14T23:42:37.117Z,91.70
2019-01-14T23:45:08.776Z,91.40
2019-01-14T23:47:37.241Z,91.10
2019-01-14T23:50:09.855Z,91.40
2019-01-14T23:52:38.294Z,91.00
2019-01-14T23:55:07.589Z,90.90
2019-01-14T23:57:36.030Z,90.80
